Time;durP1;ratioP1;P1;durP2;ratioP2;P2;SDS_P1;SDS_P2;PMS_P1;PMS_P2;Temp;Humidity;BMP_temperature;BMP_pressure;BME280_temperature;BME280_humidity;BME280_pressure;Samples;Min_cycle;Max_cycle;Signal;HPM_P1;HPM_P2
2022/09/04 00:01:15;;;;;;;8.88;1.88;;;;;;;15.16;100.00;95879.41;4970891;28;24797;-76
2022/09/04 00:03:50;;;;;;;2.00;1.60;;;;;;;15.09;100.00;95878.28;4965215;28;24442;-76
2022/09/04 00:06:24;;;;;;;4.30;2.08;;;;;;;15.09;100.00;95872.19;4969523;28;24437;-75
2022/09/04 00:09:07;;;;;;;3.08;1.60;;;;;;;14.94;100.00;95871.63;4971041;28;24453;-76
2022/09/04 00:11:46;;;;;;;2.50;1.63;;;;;;;14.96;100.00;95867.13;4969585;28;25013;-75
2022/09/04 00:14:17;;;;;;;1.73;1.63;;;;;;;14.89;100.00;95876.38;4970826;28;24438;-76
2022/09/04 00:16:49;;;;;;;2.50;1.77;;;;;;;14.88;100.00;95872.97;4971040;28;24496;-76
2022/09/04 00:19:26;;;;;;;4.75;1.50;;;;;;;14.85;100.00;95865.38;4970876;28;24826;-75
2022/09/04 00:21:58;;;;;;;3.25;1.88;;;;;;;14.85;100.00;95881.00;4970105;28;24444;-75
2022/09/04 00:24:28;;;;;;;2.13;1.95;;;;;;;14.91;100.00;95879.72;4961025;28;24434;-75
2022/09/04 00:27:03;;;;;;;2.45;1.70;;;;;;;14.90;100.00;95880.66;4970625;28;24996;-76
2022/09/04 00:29:40;;;;;;;2.70;1.70;;;;;;;14.94;100.00;95882.06;4968247;28;24450;-76
2022/09/04 00:32:17;;;;;;;3.45;1.70;;;;;;;15.00;100.00;95878.97;4968612;28;25069;-76
2022/09/04 00:35:00;;;;;;;2.63;2.10;;;;;;;15.00;100.00;95876.38;4970818;28;24441;-76
2022/09/04 00:37:34;;;;;;;2.72;1.73;;;;;;;14.94;100.00;95885.53;4967749;28;24433;-75
2022/09/04 00:40:07;;;;;;;2.50;1.80;;;;;;;14.88;100.00;95886.00;4961138;28;24827;-75
2022/09/04 00:42:57;;;;;;;2.88;1.73;;;;;;;14.90;100.00;95891.91;4963578;28;24448;-76
2022/09/04 00:45:40;;;;;;;3.80;1.65;;;;;;;14.92;100.00;95884.81;4965911;28;24549;-75
2022/09/04 00:48:21;;;;;;;2.53;1.80;;;;;;;14.89;100.00;95890.25;4968085;28;25087;-75
2022/09/04 00:51:15;;;;;;;2.00;1.30;;;;;;;14.89;100.00;95892.03;4970683;28;24456;-76
2022/09/04 00:54:09;;;;;;;1.43;1.33;;;;;;;14.92;100.00;95895.22;4962236;28;24469;-75
2022/09/04 00:56:59;;;;;;;3.35;1.88;;;;;;;14.86;100.00;95897.47;4968984;28;24449;-75
2022/09/04 00:59:39;;;;;;;2.73;1.80;;;;;;;14.80;100.00;95893.59;4967096;28;24524;-75
2022/09/04 01:02:16;;;;;;;2.65;1.60;;;;;;;14.71;100.00;95900.31;4961561;28;25040;-75
2022/09/04 01:04:50;;;;;;;2.10;1.40;;;;;;;14.67;100.00;95906.72;4965233;28;24452;-76
2022/09/04 01:07:36;;;;;;;2.25;1.70;;;;;;;14.65;100.00;95902.59;4968340;28;25076;-76
2022/09/04 01:10:22;;;;;;;1.23;1.13;;;;;;;14.68;100.00;95904.94;4969843;28;24467;-75
2022/09/04 01:12:54;;;;;;;1.60;0.82;;;;;;;14.55;100.00;95910.28;4970556;28;24444;-75
2022/09/04 01:15:28;;;;;;;2.03;1.10;;;;;;;14.51;100.00;95908.84;4967984;28;24437;-75
2022/09/04 01:18:04;;;;;;;1.27;1.15;;;;;;;14.48;100.00;95915.09;4970244;28;24586;-75
2022/09/04 01:20:53;;;;;;;3.53;1.40;;;;;;;14.42;100.00;95915.53;4966837;28;25048;-75
2022/09/04 01:23:30;;;;;;;2.00;1.30;;;;;;;14.43;100.00;95921.63;4964757;28;24524;-76
2022/09/04 01:26:04;;;;;;;1.40;1.20;;;;;;;14.40;100.00;95920.06;4968028;28;24437;-75
2022/09/04 01:28:42;;;;;;;2.35;0.90;;;;;;;14.28;100.00;95919.22;4963082;28;24437;-75
2022/09/04 01:31:16;;;;;;;0.95;0.88;;;;;;;14.15;100.00;95918.47;4967222;28;24438;-74
2022/09/04 01:33:53;;;;;;;1.60;1.10;;;;;;;14.10;100.00;95914.56;4964456;28;24441;-75
2022/09/04 01:36:32;;;;;;;1.15;1.05;;;;;;;14.10;100.00;95920.59;4967894;28;24888;-76
2022/09/04 01:39:00;;;;;;;2.45;1.15;;;;;;;14.18;100.00;95917.41;4970256;28;24514;-75
2022/09/04 01:41:32;;;;;;;2.27;1.33;;;;;;;14.18;100.00;95920.84;4969344;28;24453;-75
2022/09/04 01:43:58;;;;;;;2.03;1.50;;;;;;;14.06;100.00;95924.38;4973408;28;24449;-76
2022/09/04 01:46:45;;;;;;;2.20;1.60;;;;;;;14.01;100.00;95929.06;4973651;28;24480;-76
2022/09/04 01:49:20;;;;;;;2.72;1.92;;;;;;;14.04;100.00;95923.63;4973077;28;24465;-75
2022/09/04 01:51:56;;;;;;;2.05;1.70;;;;;;;14.08;100.00;95927.69;4960705;28;24803;-74
2022/09/04 01:54:34;;;;;;;1.45;1.20;;;;;;;14.09;100.00;95937.16;4973901;28;24459;-75
2022/09/04 01:57:11;;;;;;;4.63;1.27;;;;;;;14.08;100.00;95934.66;4973771;28;24499;-76
2022/09/04 01:59:51;;;;;;;2.03;1.30;;;;;;;14.11;100.00;95931.84;4972935;28;24500;-75
2022/09/04 02:02:25;;;;;;;2.00;1.20;;;;;;;14.03;100.00;95935.84;4973144;28;24449;-75
2022/09/04 02:04:58;;;;;;;2.67;1.25;;;;;;;13.88;100.00;95936.13;4972166;28;24515;-75
2022/09/04 02:07:32;;;;;;;1.58;1.30;;;;;;;13.69;100.00;95940.06;4973081;28;24438;-75
2022/09/04 02:10:07;;;;;;;1.45;1.00;;;;;;;13.63;100.00;95931.88;4972952;28;25026;-76
2022/09/04 02:12:41;;;;;;;1.10;0.98;;;;;;;13.62;100.00;95938.03;4967319;28;24446;-75
2022/09/04 02:15:12;;;;;;;1.70;1.10;;;;;;;13.52;100.00;95943.06;4972005;28;24500;-75
2022/09/04 02:17:46;;;;;;;1.33;1.15;;;;;;;13.51;100.00;95946.59;4972895;28;24441;-75
2022/09/04 02:20:21;;;;;;;2.03;1.30;;;;;;;13.58;100.00;95950.44;4973119;28;24437;-75
2022/09/04 02:22:58;;;;;;;1.95;1.30;;;;;;;13.65;100.00;95940.41;4972481;28;24472;-74
2022/09/04 02:25:30;;;;;;;1.85;1.42;;;;;;;13.68;100.00;95935.81;4972203;28;24440;-75
2022/09/04 02:28:09;;;;;;;3.70;1.40;;;;;;;13.71;100.00;95940.78;4973027;28;24446;-76
2022/09/04 02:30:42;;;;;;;1.37;1.17;;;;;;;13.65;100.00;95941.25;4961409;28;25010;-75
2022/09/04 02:33:17;;;;;;;1.90;1.50;;;;;;;13.62;100.00;95944.06;4972394;28;24437;-75
2022/09/04 02:35:49;;;;;;;0.98;0.90;;;;;;;13.62;100.00;95945.84;4972357;28;25009;-76
2022/09/04 02:38:25;;;;;;;1.10;0.93;;;;;;;13.61;100.00;95944.16;4968227;28;24465;-75
2022/09/04 02:40:59;;;;;;;1.20;0.80;;;;;;;13.55;100.00;95937.63;4968098;28;24446;-76
2022/09/04 02:43:41;;;;;;;1.10;1.00;;;;;;;13.46;100.00;95946.94;4972565;28;24436;-75
2022/09/04 02:46:15;;;;;;;1.40;1.10;;;;;;;13.38;100.00;95941.44;4969944;28;24437;-76
2022/09/04 02:48:53;;;;;;;1.15;0.98;;;;;;;13.47;100.00;95942.56;4972482;28;24448;-76
2022/09/04 02:51:32;;;;;;;1.00;0.90;;;;;;;13.29;100.00;95948.13;4966038;28;24461;-76
2022/09/04 02:54:06;;;;;;;1.20;1.00;;;;;;;13.25;100.00;95948.47;4969358;28;24437;-76
2022/09/04 02:56:46;;;;;;;1.63;1.27;;;;;;;13.20;100.00;95943.56;4965616;28;24987;-76
2022/09/04 02:59:36;;;;;;;2.35;1.35;;;;;;;13.20;100.00;95948.75;4972715;28;24440;-75
2022/09/04 03:02:05;;;;;;;1.98;1.38;;;;;;;13.11;100.00;95952.00;4972079;28;24537;-76
2022/09/04 03:04:39;;;;;;;1.60;1.42;;;;;;;13.09;100.00;95948.69;4970672;28;25076;-76
2022/09/04 03:07:09;;;;;;;2.20;1.27;;;;;;;13.13;100.00;95951.91;4972666;28;24433;-76
2022/09/04 03:09:42;;;;;;;2.25;1.10;;;;;;;13.14;100.00;95951.78;4971989;28;24456;-76
2022/09/04 03:12:25;;;;;;;1.40;1.30;;;;;;;13.19;100.00;95948.84;4972148;28;24437;-75
2022/09/04 03:15:00;;;;;;;1.65;1.42;;;;;;;13.12;100.00;95960.63;4967941;28;24807;-75
2022/09/04 03:17:34;;;;;;;1.55;1.45;;;;;;;13.06;100.00;95956.69;4968044;28;24437;-76
2022/09/04 03:20:07;;;;;;;1.85;1.50;;;;;;;13.06;100.00;95957.53;4968960;28;24430;-75
2022/09/04 03:22:43;;;;;;;1.52;1.40;;;;;;;13.03;100.00;95959.50;4968174;28;24437;-76
2022/09/04 03:25:34;;;;;;;1.50;1.40;;;;;;;13.06;100.00;95954.09;4971933;28;24441;-76
2022/09/04 03:28:01;;;;;;;1.30;1.20;;;;;;;13.07;100.00;95960.94;4964170;28;24517;-76
2022/09/04 03:30:35;;;;;;;1.40;1.10;;;;;;;13.07;100.00;95958.34;4965234;28;24457;-76
2022/09/04 03:33:07;;;;;;;1.48;1.10;;;;;;;13.06;100.00;95964.50;4960452;28;24429;-76
2022/09/04 03:35:41;;;;;;;1.30;1.20;;;;;;;13.07;100.00;95966.16;4971789;28;24433;-76
2022/09/04 03:38:19;;;;;;;1.52;1.30;;;;;;;12.98;100.00;95967.63;4970493;28;24443;-76
2022/09/04 03:40:56;;;;;;;2.88;1.30;;;;;;;12.93;100.00;95979.25;4967962;28;24437;-75
2022/09/04 03:43:40;;;;;;;1.30;1.20;;;;;;;12.92;100.00;95969.81;4970708;28;24445;-76
2022/09/04 03:46:23;;;;;;;2.83;1.30;;;;;;;12.91;100.00;95962.97;4970752;28;24426;-76
2022/09/04 03:49:08;;;;;;;1.20;1.00;;;;;;;12.92;100.00;95970.63;4965503;28;24442;-75
2022/09/04 03:51:45;;;;;;;1.20;1.02;;;;;;;12.94;100.00;95970.53;4967600;28;24465;-76
2022/09/04 03:54:27;;;;;;;1.20;1.10;;;;;;;12.95;100.00;95969.59;4969665;28;24438;-76
2022/09/04 03:57:05;;;;;;;1.00;0.90;;;;;;;12.96;100.00;95972.09;4971169;28;24967;-76
2022/09/04 03:59:53;;;;;;;1.60;1.00;;;;;;;12.95;100.00;95980.84;4967065;28;24434;-76
2022/09/04 04:02:32;;;;;;;1.20;1.10;;;;;;;13.01;100.00;95982.16;4970276;28;24802;-75
2022/09/04 04:05:20;;;;;;;1.00;0.90;;;;;;;13.05;100.00;95976.66;4971252;28;24434;-76
2022/09/04 04:08:02;;;;;;;1.60;1.25;;;;;;;13.05;100.00;95971.47;4971275;28;24448;-76
2022/09/04 04:10:39;;;;;;;9.48;1.55;;;;;;;13.05;100.00;95986.22;4971250;28;24529;-76
2022/09/04 04:13:25;;;;;;;16.65;2.10;;;;;;;12.80;100.00;95989.69;4971034;28;24429;-76
2022/09/04 04:16:03;;;;;;;16.13;1.50;;;;;;;12.67;100.00;95987.06;4971289;28;24791;-75
2022/09/04 04:18:48;;;;;;;5.78;1.63;;;;;;;12.70;100.00;95984.25;4960208;28;24430;-75
2022/09/04 04:21:28;;;;;;;4.07;1.48;;;;;;;12.71;100.00;95985.91;4969004;28;24445;-75
2022/09/04 04:24:08;;;;;;;8.52;1.40;;;;;;;12.76;100.00;95996.84;4971029;28;24442;-76
2022/09/04 04:26:46;;;;;;;3.65;1.23;;;;;;;12.78;100.00;95987.16;4964137;28;24437;-75
2022/09/04 04:29:38;;;;;;;3.92;1.52;;;;;;;12.80;100.00;95989.69;4971132;28;24437;-75
2022/09/04 04:32:24;;;;;;;1.88;1.48;;;;;;;12.77;100.00;96001.09;4962954;28;24468;-76
2022/09/04 04:35:07;;;;;;;1.73;1.33;;;;;;;12.77;100.00;96001.09;4970884;28;25010;-75
2022/09/04 04:37:43;;;;;;;4.57;1.50;;;;;;;12.67;100.00;95996.63;4970115;28;24484;-76
2022/09/04 04:40:17;;;;;;;1.80;1.70;;;;;;;12.59;100.00;95997.97;4970800;28;24499;-76
2022/09/04 04:42:53;;;;;;;1.67;1.50;;;;;;;12.54;100.00;96009.63;4969797;28;24452;-76
2022/09/04 04:48:40;;;;;;;1.88;1.63;;;;;;;12.58;100.00;96026.69;4968480;28;24531;-76
2022/09/04 04:51:25;;;;;;;1.48;1.35;;;;;;;12.57;100.00;96025.03;4961270;28;25108;-75
2022/09/04 04:54:13;;;;;;;3.47;1.67;;;;;;;12.61;100.00;96023.88;4968812;28;24438;-76
2022/09/04 04:56:48;;;;;;;1.80;1.50;;;;;;;12.66;100.00;96028.75;4964759;28;24430;-76
2022/09/04 04:59:22;;;;;;;2.13;1.60;;;;;;;12.60;100.00;96036.00;4970606;28;24440;-75
2022/09/04 05:01:58;;;;;;;1.75;1.65;;;;;;;12.60;100.00;96035.19;4970752;28;24460;-76
2022/09/04 05:04:33;;;;;;;1.92;1.77;;;;;;;12.67;100.00;96039.03;4966752;28;24440;-76
2022/09/04 05:07:06;;;;;;;2.65;1.80;;;;;;;12.70;100.00;96036.25;4970536;28;24444;-76
2022/09/04 05:09:40;;;;;;;1.50;1.40;;;;;;;12.57;100.00;96040.59;4963257;28;24995;-75
2022/09/04 05:12:13;;;;;;;2.75;1.55;;;;;;;12.48;100.00;96049.00;4970293;28;24441;-76
2022/09/04 05:14:50;;;;;;;3.95;1.52;;;;;;;12.52;100.00;96042.66;4959590;28;24426;-76
2022/09/04 05:17:32;;;;;;;2.63;1.15;;;;;;;12.53;100.00;96054.69;4971220;28;24441;-75
2022/09/04 05:20:20;;;;;;;1.65;1.30;;;;;;;12.53;100.00;96060.75;4974242;28;24453;-75
2022/09/04 05:22:58;;;;;;;1.40;0.90;;;;;;;12.65;100.00;96064.31;4968563;28;24437;-74
2022/09/04 05:25:35;;;;;;;1.15;1.00;;;;;;;12.83;100.00;96070.06;4971225;28;24434;-76
2022/09/04 05:28:09;;;;;;;1.90;1.38;;;;;;;13.01;100.00;96063.59;4967996;28;24457;-75
2022/09/04 05:30:43;;;;;;;2.15;1.38;;;;;;;13.16;100.00;96073.88;4970458;28;24991;-76
2022/09/04 05:33:21;;;;;;;1.45;1.33;;;;;;;13.17;100.00;96076.41;4967772;28;24437;-75
2022/09/04 05:35:51;;;;;;;3.50;1.50;;;;;;;13.23;100.00;96075.13;4973682;28;24473;-73
2022/09/04 05:38:26;;;;;;;1.70;1.20;;;;;;;13.25;100.00;96084.53;4971881;28;24804;-73
2022/09/04 05:41:05;;;;;;;2.42;1.10;;;;;;;13.32;100.00;96093.59;4969127;28;24508;-73
2022/09/04 05:43:42;;;;;;;1.80;1.45;;;;;;;13.51;100.00;96095.75;4967219;28;24442;-71
2022/09/04 05:46:17;;;;;;;1.42;1.30;;;;;;;13.50;100.00;96107.09;4971625;28;24892;-71
2022/09/04 05:48:53;;;;;;;1.40;1.30;;;;;;;13.52;100.00;96105.22;4970941;28;24460;-72
2022/09/04 05:51:53;;;;;;;1.55;1.40;;;;;;;13.31;100.00;96110.16;4972386;28;24457;-71
2022/09/04 05:54:38;;;;;;;1.83;1.30;;;;;;;13.27;100.00;96107.81;4970405;28;24453;-71
2022/09/04 05:57:17;;;;;;;1.67;1.02;;;;;;;13.35;100.00;96110.75;4976265;28;24430;-71
2022/09/04 06:00:05;;;;;;;1.50;1.10;;;;;;;13.34;100.00;96108.25;4972268;28;24460;-72
2022/09/04 06:03:16;;;;;;;1.40;1.30;;;;;;;13.37;100.00;96113.25;4963427;28;25006;-71
2022/09/04 06:06:04;;;;;;;1.30;1.20;;;;;;;13.50;100.00;96114.91;4967631;28;24445;-72
2022/09/04 06:08:50;;;;;;;1.70;1.40;;;;;;;13.43;100.00;96112.84;4968692;28;24438;-71
2022/09/04 06:11:50;;;;;;;1.40;1.30;;;;;;;13.46;100.00;96110.00;4963056;28;24554;-71
2022/09/04 06:14:43;;;;;;;1.43;1.33;;;;;;;13.59;100.00;96115.22;4948684;28;24473;-71
2022/09/04 06:17:26;;;;;;;3.58;1.90;;;;;;;13.85;100.00;96129.84;4966110;28;24437;-71
2022/09/04 06:20:07;;;;;;;1.73;1.58;;;;;;;14.14;100.00;96132.16;4962443;28;25028;-71
2022/09/04 06:23:06;;;;;;;1.63;1.50;;;;;;;14.37;100.00;96130.50;4963098;28;24795;-72
2022/09/04 06:25:52;;;;;;;2.63;1.88;;;;;;;14.63;100.00;96133.88;4945380;28;24452;-72
2022/09/04 06:28:40;;;;;;;2.50;1.83;;;;;;;14.81;100.00;96137.72;4968175;28;24480;-72
2022/09/04 06:31:27;;;;;;;2.78;1.80;;;;;;;15.02;100.00;96137.94;4971643;28;24461;-72
2022/09/04 06:34:00;;;;;;;2.50;1.52;;;;;;;15.26;100.00;96137.84;4972266;28;24433;-72
2022/09/04 06:36:48;;;;;;;2.47;1.67;;;;;;;15.38;100.00;96134.28;4970956;28;25213;-71
2022/09/04 06:39:37;;;;;;;2.15;1.73;;;;;;;15.55;100.00;96145.25;4972480;28;24445;-71
2022/09/04 06:42:21;;;;;;;1.70;1.58;;;;;;;15.72;100.00;96136.97;4972584;28;24438;-72
2022/09/04 06:45:04;;;;;;;3.88;1.73;;;;;;;15.83;100.00;96134.34;4972762;28;24444;-71
2022/09/04 06:47:43;;;;;;;2.83;1.70;;;;;;;16.02;100.00;96133.75;4965215;28;24449;-71
2022/09/04 06:50:22;;;;;;;1.85;1.70;;;;;;;16.00;100.00;96137.44;4971121;28;24979;-71
2022/09/04 06:53:07;;;;;;;3.70;2.15;;;;;;;15.79;100.00;96148.59;4972177;28;24449;-71
2022/09/04 06:55:44;;;;;;;2.35;2.10;;;;;;;15.61;100.00;96145.63;4965407;28;24493;-71
2022/09/04 06:58:44;;;;;;;2.40;1.98;;;;;;;15.84;100.00;96149.09;4971600;28;24535;-72
2022/09/04 07:01:19;;;;;;;2.72;1.95;;;;;;;15.91;100.00;96163.34;4955227;28;25062;-72
2022/09/04 07:03:59;;;;;;;3.78;1.85;;;;;;;15.90;100.00;96163.44;4971757;28;24452;-71
2022/09/04 07:06:36;;;;;;;2.70;1.98;;;;;;;16.12;100.00;96170.44;4971979;28;24452;-72
2022/09/04 07:09:15;;;;;;;2.70;1.90;;;;;;;16.10;100.00;96177.56;4972249;28;24533;-71
2022/09/04 07:12:01;;;;;;;4.10;2.05;;;;;;;16.00;100.00;96174.84;4971650;28;24823;-71
2022/09/04 07:14:51;;;;;;;2.08;1.70;;;;;;;16.41;100.00;96170.75;4971845;28;24445;-72
2022/09/04 07:17:28;;;;;;;3.15;2.15;;;;;;;16.57;100.00;96173.78;4970855;28;24496;-71
2022/09/04 07:20:11;;;;;;;2.13;1.80;;;;;;;16.59;100.00;96166.66;4967744;28;24434;-72
2022/09/04 07:22:54;;;;;;;5.40;2.20;;;;;;;16.66;100.00;96175.66;4971554;28;24520;-72
2022/09/04 07:25:27;;;;;;;2.28;2.08;;;;;;;16.92;100.00;96175.38;4970844;28;24456;-72
2022/09/04 07:28:18;;;;;;;2.83;1.80;;;;;;;17.01;100.00;96172.00;4972044;28;24432;-72
2022/09/04 07:30:52;;;;;;;2.10;1.90;;;;;;;17.24;100.00;96180.56;4963635;28;25192;-72
2022/09/04 07:33:28;;;;;;;2.08;1.75;;;;;;;17.51;100.00;96177.44;4970129;28;24983;-72
2022/09/04 07:36:03;;;;;;;2.72;2.10;;;;;;;17.69;100.00;96184.69;4967011;28;24445;-72
2022/09/04 07:38:38;;;;;;;3.30;2.00;;;;;;;17.80;100.00;96184.66;4968952;28;24480;-72
2022/09/04 07:41:11;;;;;;;3.60;2.15;;;;;;;18.00;100.00;96181.16;4969962;28;24437;-72
2022/09/04 07:43:45;;;;;;;2.05;1.60;;;;;;;18.33;100.00;96193.13;4971259;28;24528;-73
2022/09/04 07:46:20;;;;;;;3.17;1.70;;;;;;;18.78;100.00;96202.38;4970799;28;25020;-73
2022/09/04 07:48:53;;;;;;;2.80;1.80;;;;;;;18.66;100.00;96198.19;4966778;28;24434;-73
2022/09/04 07:51:24;;;;;;;2.55;1.83;;;;;;;18.57;100.00;96199.81;4965553;28;24540;-73
2022/09/04 07:54:11;;;;;;;2.50;1.50;;;;;;;19.17;100.00;96199.75;4962865;28;24441;-73
2022/09/04 07:56:54;;;;;;;1.90;1.38;;;;;;;19.78;100.00;96199.44;4966432;28;24556;-73
2022/09/04 07:59:49;;;;;;;2.78;1.50;;;;;;;20.23;100.00;96199.53;4966532;28;24440;-73
2022/09/04 08:02:34;;;;;;;1.45;1.08;;;;;;;20.59;100.00;96201.47;4976354;28;24452;-73
2022/09/04 08:05:23;;;;;;;1.88;1.38;;;;;;;20.86;100.00;96204.06;4974607;28;24437;-73
2022/09/04 08:08:23;;;;;;;2.00;1.20;;;;;;;21.22;97.10;96201.44;4961640;28;24884;-73
2022/09/04 08:11:15;;;;;;;2.53;1.02;;;;;;;21.44;92.41;96214.16;4949342;28;24484;-72
2022/09/04 08:14:09;;;;;;;2.47;1.20;;;;;;;21.30;90.26;96214.69;4968183;28;24518;-73
2022/09/04 08:16:43;;;;;;;2.15;1.25;;;;;;;21.69;90.97;96215.19;4966872;28;25007;-73
2022/09/04 08:19:26;;;;;;;3.83;1.17;;;;;;;21.81;89.78;96207.84;4968615;28;24434;-73
2022/09/04 08:21:55;;;;;;;1.75;0.93;;;;;;;22.12;89.70;96216.09;4970770;28;24438;-73
2022/09/04 08:24:51;;;;;;;1.63;1.13;;;;;;;22.32;87.81;96216.75;4959729;28;24454;-73
2022/09/04 08:27:32;;;;;;;2.05;1.17;;;;;;;22.51;86.47;96226.22;4962828;28;24537;-72
2022/09/04 08:30:05;;;;;;;1.50;0.82;;;;;;;22.54;86.80;96220.59;4966848;28;24533;-72
2022/09/04 08:33:12;;;;;;;1.95;1.08;;;;;;;22.96;83.31;96227.69;4965551;28;24465;-73
2022/09/04 08:35:51;;;;;;;1.55;0.90;;;;;;;22.22;79.87;96223.94;4958736;28;24996;-73
2022/09/04 08:38:38;;;;;;;1.95;1.00;;;;;;;22.24;79.91;96232.50;4970261;28;24843;-73
2022/09/04 08:41:32;;;;;;;3.50;1.20;;;;;;;21.89;82.27;96226.34;4970638;28;24444;-73
2022/09/04 08:44:35;;;;;;;2.35;0.90;;;;;;;21.52;82.16;96237.13;4967127;28;24441;-73
2022/09/04 08:47:34;;;;;;;2.08;1.05;;;;;;;21.95;83.13;96231.03;4964546;28;24441;-72
2022/09/04 08:50:42;;;;;;;1.83;1.00;;;;;;;22.39;79.76;96225.66;4924863;28;24448;-72
2022/09/04 08:53:44;;;;;;;1.60;0.90;;;;;;;22.56;75.01;96231.00;4935031;28;25033;-73
2022/09/04 08:56:28;;;;;;;2.10;0.93;;;;;;;22.06;74.01;96234.34;4972857;28;24456;-72
2022/09/04 08:59:32;;;;;;;1.27;0.80;;;;;;;21.79;75.00;96236.16;4972988;28;24445;-73
2022/09/04 09:02:51;;;;;;;3.00;1.05;;;;;;;22.51;80.44;96236.78;4968988;28;24803;-72
2022/09/04 09:06:09;;;;;;;1.23;1.00;;;;;;;23.51;83.55;96232.38;4958715;28;24456;-72
2022/09/04 09:09:07;;;;;;;2.15;1.25;;;;;;;23.98;75.81;96221.13;4972694;28;24442;-72
2022/09/04 09:12:07;;;;;;;2.27;1.07;;;;;;;23.44;73.90;96236.69;4969207;28;24497;-73
2022/09/04 09:15:07;;;;;;;3.90;1.10;;;;;;;22.49;77.26;96225.53;4972633;28;24448;-73
2022/09/04 09:17:38;;;;;;;1.65;0.90;;;;;;;22.21;79.22;96233.66;4973658;28;25327;-74
2022/09/04 09:20:26;;;;;;;1.70;0.88;;;;;;;21.95;80.32;96230.16;4973688;28;25017;-73
2022/09/04 09:23:16;;;;;;;1.30;0.80;;;;;;;21.81;83.07;96221.03;4973320;28;25002;-73
2022/09/04 09:25:50;;;;;;;5.30;1.00;;;;;;;21.38;85.57;96224.50;4971986;28;24445;-73
2022/09/04 09:28:55;;;;;;;3.47;1.08;;;;;;;21.22;84.42;96223.34;4971748;28;24452;-73
2022/09/04 09:32:02;;;;;;;1.42;0.90;;;;;;;21.03;84.65;96228.75;4959550;28;24469;-73
2022/09/04 09:35:01;;;;;;;2.08;0.95;;;;;;;20.92;85.28;96231.63;4972696;28;24438;-73
2022/09/04 09:37:58;;;;;;;1.27;0.88;;;;;;;20.82;85.86;96229.03;4972167;28;24435;-73
2022/09/04 09:40:45;;;;;;;2.25;1.08;;;;;;;21.81;87.97;96231.56;4972929;28;24448;-73
2022/09/04 09:43:50;;;;;;;1.90;1.10;;;;;;;22.63;83.33;96232.03;4973059;28;25031;-74
2022/09/04 09:46:50;;;;;;;1.83;0.95;;;;;;;23.13;82.21;96239.94;4973122;28;24521;-73
2022/09/04 09:50:04;;;;;;;1.67;1.00;;;;;;;23.03;75.34;96238.44;4970458;28;24515;-73
2022/09/04 09:53:03;;;;;;;1.10;0.80;;;;;;;22.83;75.02;96233.41;4966351;28;24816;-75
2022/09/04 09:56:12;;;;;;;2.42;0.98;;;;;;;22.83;75.89;96230.75;4972579;28;24464;-74
2022/09/04 09:59:04;;;;;;;2.63;1.10;;;;;;;22.56;75.66;96231.84;4964623;28;24453;-74
2022/09/04 10:01:59;;;;;;;1.80;1.10;;;;;;;22.03;76.36;96226.78;4967647;28;24449;-74
2022/09/04 10:04:50;;;;;;;1.52;0.90;;;;;;;22.19;77.04;96225.06;4964850;28;24437;-74
2022/09/04 10:07:50;;;;;;;1.20;0.90;;;;;;;22.64;76.00;96226.56;4973068;28;24815;-75
2022/09/04 10:10:42;;;;;;;2.20;1.00;;;;;;;22.62;74.03;96227.72;4961185;28;24441;-74
2022/09/04 10:13:39;;;;;;;2.53;1.38;;;;;;;22.96;81.10;96235.63;4970817;28;25032;-74
2022/09/04 10:16:41;;;;;;;1.70;1.20;;;;;;;22.58;78.63;96218.47;4964046;28;24440;-75
2022/09/04 10:19:35;;;;;;;4.38;1.17;;;;;;;22.84;80.71;96224.50;4967066;28;24438;-75
2022/09/04 10:22:32;;;;;;;1.90;1.10;;;;;;;23.18;81.53;96228.91;4969656;28;24477;-76
2022/09/04 10:25:40;;;;;;;2.07;1.10;;;;;;;23.50;78.03;96220.13;4969666;28;24448;-74
2022/09/04 10:28:24;;;;;;;1.92;1.00;;;;;;;23.18;73.18;96229.72;4971658;28;24859;-75
2022/09/04 10:31:20;;;;;;;4.10;1.48;;;;;;;23.01;75.78;96228.03;4973377;28;24445;-75
2022/09/04 10:34:04;;;;;;;1.23;0.82;;;;;;;23.19;71.87;96225.25;4972477;28;24452;-75
2022/09/04 10:36:42;;;;;;;1.20;0.90;;;;;;;22.96;73.07;96225.06;4961895;28;24512;-75
2022/09/04 10:42:26;;;;;;;1.13;0.80;;;;;;;22.87;72.66;96226.81;4969855;28;24607;-75
2022/09/04 10:45:14;;;;;;;2.00;1.10;;;;;;;22.87;71.93;96236.53;4970452;28;24494;-75
2022/09/04 10:48:11;;;;;;;3.50;0.90;;;;;;;22.73;72.89;96231.88;4964192;28;24553;-76
2022/09/04 10:51:07;;;;;;;3.72;1.00;;;;;;;23.12;77.86;96233.00;4966175;28;24437;-74
2022/09/04 10:53:56;;;;;;;2.10;1.17;;;;;;;23.58;75.86;96232.53;4968208;28;24471;-75
2022/09/04 10:56:28;;;;;;;1.65;1.00;;;;;;;23.96;74.24;96222.28;4975039;28;25017;-75
2022/09/04 10:59:33;;;;;;;2.00;1.17;;;;;;;23.89;68.78;96222.13;4973481;28;24438;-75
2022/09/04 11:02:33;;;;;;;3.70;0.93;;;;;;;23.30;69.56;96221.47;4968405;28;24445;-75
2022/09/04 11:05:19;;;;;;;1.65;0.88;;;;;;;23.49;73.18;96231.72;4953377;28;24437;-73
2022/09/04 11:08:19;;;;;;;1.30;0.82;;;;;;;23.03;68.41;96227.88;4962228;28;24492;-75
2022/09/04 11:11:05;;;;;;;1.30;0.90;;;;;;;22.72;68.16;96223.13;4971627;28;24433;-76
2022/09/04 11:14:11;;;;;;;1.92;0.90;;;;;;;23.50;70.92;96228.06;4971472;28;24520;-74
2022/09/04 11:16:59;;;;;;;2.00;1.08;;;;;;;23.52;67.98;96227.94;4969246;28;24445;-74
2022/09/04 11:20:02;;;;;;;1.77;0.97;;;;;;;23.90;65.09;96223.78;4971144;28;24437;-74
2022/09/04 11:23:03;;;;;;;1.25;0.90;;;;;;;23.99;65.82;96216.66;4969256;28;24465;-74
2022/09/04 11:26:12;;;;;;;1.67;0.80;;;;;;;23.93;65.17;96220.81;4965181;28;24466;-74
2022/09/04 11:29:08;;;;;;;2.55;1.08;;;;;;;23.64;66.40;96219.47;4968908;28;24824;-74
2022/09/04 11:31:47;;;;;;;1.90;0.88;;;;;;;24.18;68.02;96218.94;4966762;28;24452;-74
2022/09/04 11:34:47;;;;;;;2.20;0.80;;;;;;;23.95;68.37;96218.78;4968239;28;24492;-73
2022/09/04 11:37:55;;;;;;;2.20;1.05;;;;;;;24.39;69.74;96210.44;4971579;28;24445;-73
2022/09/04 11:41:09;;;;;;;2.63;1.03;;;;;;;24.58;65.61;96207.41;4955796;28;25483;-73
2022/09/04 11:44:06;;;;;;;2.28;0.88;;;;;;;24.20;65.58;96211.63;4964017;28;24477;-73
2022/09/04 11:47:02;;;;;;;1.02;0.80;;;;;;;23.95;70.25;96216.16;4966762;28;24445;-73
2022/09/04 11:50:04;;;;;;;1.43;1.07;;;;;;;24.12;67.91;96220.41;4963460;28;24626;-73
2022/09/04 11:52:46;;;;;;;2.20;1.00;;;;;;;23.93;68.27;96215.50;4964385;28;24457;-72
2022/09/04 11:55:30;;;;;;;1.52;1.10;;;;;;;23.97;68.75;96221.28;4959609;28;24437;-75
2022/09/04 11:58:08;;;;;;;1.35;0.88;;;;;;;23.90;71.65;96215.84;4970063;28;24515;-73
2022/09/04 12:00:43;;;;;;;2.30;1.00;;;;;;;23.82;68.35;96232.56;4965684;28;24445;-73
2022/09/04 12:03:28;;;;;;;3.40;1.30;;;;;;;23.94;69.65;96227.75;4971530;28;24490;-73
2022/09/04 12:06:06;;;;;;;2.03;1.10;;;;;;;24.25;70.26;96230.50;4971389;28;24971;-73
2022/09/04 12:09:09;;;;;;;2.08;0.95;;;;;;;24.20;69.59;96224.03;4965555;28;24449;-73
2022/09/04 12:11:59;;;;;;;2.47;1.17;;;;;;;24.20;65.67;96218.75;4964632;28;24442;-73
2022/09/04 12:14:55;;;;;;;2.70;0.90;;;;;;;24.04;69.96;96225.75;4971125;28;24990;-73
2022/09/04 12:17:50;;;;;;;1.20;0.90;;;;;;;24.20;65.81;96224.88;4962656;28;24434;-73
2022/09/04 12:20:41;;;;;;;1.60;0.90;;;;;;;23.96;69.11;96230.22;4971156;28;24450;-73
2022/09/04 12:23:36;;;;;;;2.47;1.17;;;;;;;23.54;66.46;96226.75;4971186;28;24863;-73
2022/09/04 12:26:33;;;;;;;2.13;1.10;;;;;;;24.13;75.22;96227.34;4944139;28;24442;-73
2022/09/04 12:29:40;;;;;;;1.50;0.90;;;;;;;24.11;69.49;96221.44;4971204;28;24983;-73
2022/09/04 12:32:32;;;;;;;2.30;1.23;;;;;;;24.05;65.74;96222.09;4968196;28;25098;-73
2022/09/04 12:35:43;;;;;;;2.30;0.90;;;;;;;23.98;69.57;96222.94;4971186;28;24800;-73
2022/09/04 12:38:32;;;;;;;1.77;1.08;;;;;;;24.26;68.99;96224.19;4968444;28;24816;-73
2022/09/04 12:41:05;;;;;;;2.20;1.10;;;;;;;24.38;66.64;96212.22;4963262;28;24441;-73
2022/09/04 12:43:44;;;;;;;1.03;0.90;;;;;;;24.35;68.95;96211.75;4965053;28;24441;-74
2022/09/04 12:46:34;;;;;;;1.15;0.75;;;;;;;24.36;67.01;96222.19;4970953;28;24437;-74
2022/09/04 12:49:24;;;;;;;1.42;1.00;;;;;;;24.31;69.95;96219.22;4970882;28;24994;-74
2022/09/04 12:52:03;;;;;;;2.42;1.30;;;;;;;24.09;65.36;96219.94;4970707;28;25065;-73
2022/09/04 12:54:37;;;;;;;1.98;1.10;;;;;;;24.10;68.09;96218.94;4959821;28;24436;-73